Time;durP1;ratioP1;P1;durP2;ratioP2;P2;SDS_P1;SDS_P2;PMS_P1;PMS_P2;Temp;Humidity;BMP_temperature;BMP_pressure;BME280_temperature;BME280_humidity;BME280_pressure;Samples;Min_cycle;Max_cycle;Signal;HPM_P1;HPM_P2
2023/10/17 03:31:11;;;;;;;2.78;2.40;;;2.30;99.90;;;;;;5753819;23;20327;-69
2023/10/17 03:33:40;;;;;;;3.63;2.85;;;2.30;99.90;;;;;;4932945;29;20208;-69
2023/10/17 03:36:23;;;;;;;3.00;2.70;;;2.30;99.90;;;;;;4943886;28;20677;-68
2023/10/17 03:38:52;;;;;;;4.60;2.20;;;2.30;99.90;;;;;;4944362;29;20284;-69
2023/10/17 03:41:24;;;;;;;4.38;3.95;;;2.30;99.90;;;;;;4941266;28;20228;-69
2023/10/17 03:43:52;;;;;;;3.35;2.70;;;2.20;99.90;;;;;;4935435;29;20202;-69
2023/10/17 03:46:25;;;;;;;3.47;3.00;;;2.20;99.90;;;;;;4930341;29;20636;-69
2023/10/17 03:48:57;;;;;;;5.20;2.63;;;2.30;99.90;;;;;;4934610;29;20213;-69
2023/10/17 03:51:24;;;;;;;3.30;2.65;;;2.30;99.90;;;;;;4934240;29;20602;-69
2023/10/17 03:53:53;;;;;;;3.35;3.05;;;2.20;99.90;;;;;;4934726;29;20665;-69
2023/10/17 03:56:24;;;;;;;3.10;2.53;;;2.20;99.90;;;;;;4933963;29;20203;-69
2023/10/17 03:58:56;;;;;;;3.03;2.70;;;2.30;99.90;;;;;;4934958;29;20221;-69
2023/10/17 04:01:26;;;;;;;3.10;2.80;;;2.30;99.90;;;;;;4934440;29;20244;-69
2023/10/17 04:03:54;;;;;;;4.35;3.28;;;2.30;99.90;;;;;;4934627;29;20244;-69
2023/10/17 04:06:33;;;;;;;3.15;2.25;;;2.40;99.90;;;;;;4934822;29;20216;-67
2023/10/17 04:09:15;;;;;;;2.75;2.40;;;2.40;99.90;;;;;;4936435;29;20280;-67
2023/10/17 04:11:45;;;;;;;3.33;3.03;;;2.50;99.90;;;;;;4942326;28;20232;-66
2023/10/17 04:14:13;;;;;;;3.22;2.92;;;2.50;99.90;;;;;;4945007;29;20606;-68
2023/10/17 04:16:43;;;;;;;3.97;3.10;;;2.60;99.90;;;;;;4944284;28;20216;-69
2023/10/17 04:19:16;;;;;;;2.53;2.30;;;2.60;99.90;;;;;;4946193;28;20299;-66
2023/10/17 04:21:49;;;;;;;3.45;2.45;;;2.60;99.90;;;;;;4944100;28;20225;-66
2023/10/17 04:24:26;;;;;;;3.35;2.90;;;2.60;99.90;;;;;;4945223;28;20300;-66
2023/10/17 04:27:05;;;;;;;5.05;3.45;;;2.60;99.90;;;;;;4934359;29;20254;-66
2023/10/17 04:29:32;;;;;;;3.33;2.92;;;2.60;99.90;;;;;;4932880;29;20292;-66
2023/10/17 04:32:01;;;;;;;5.03;3.70;;;2.60;99.90;;;;;;4933811;29;20229;-65
2023/10/17 04:34:28;;;;;;;4.05;2.72;;;2.60;99.90;;;;;;4932740;29;20205;-65
2023/10/17 04:36:56;;;;;;;2.80;2.50;;;2.70;99.90;;;;;;4932579;29;20630;-66
2023/10/17 04:39:35;;;;;;;4.15;2.83;;;2.70;99.90;;;;;;4934841;29;20253;-66
2023/10/17 04:42:09;;;;;;;2.80;2.55;;;2.70;99.90;;;;;;4934469;29;20721;-65
2023/10/17 04:44:36;;;;;;;3.38;2.70;;;2.70;99.90;;;;;;4934293;29;20201;-66
2023/10/17 04:47:16;;;;;;;5.10;3.17;;;2.70;99.90;;;;;;4935200;29;20215;-66
2023/10/17 04:49:44;;;;;;;2.80;2.60;;;2.70;99.90;;;;;;4934555;29;20224;-66
2023/10/17 04:52:17;;;;;;;4.22;3.22;;;2.80;99.90;;;;;;4934537;29;20260;-66
2023/10/17 04:54:44;;;;;;;3.85;2.83;;;2.80;99.90;;;;;;4933561;29;20656;-66
2023/10/17 04:57:15;;;;;;;3.28;2.90;;;2.80;99.90;;;;;;4934698;29;20280;-67
2023/10/17 04:59:51;;;;;;;5.25;2.85;;;2.80;99.90;;;;;;4934117;29;20512;-67
2023/10/17 06:16:53;;;;;;;3.80;3.40;;;3.10;99.90;;;;;;4937561;29;20211;-68
2023/10/17 06:19:24;;;;;;;5.35;3.13;;;3.20;99.90;;;;;;4931801;29;20736;-67
2023/10/17 06:30:29;;;;;;;6.38;3.08;;;3.30;99.90;;;;;;4933475;29;20207;-67
2023/10/17 06:35:44;;;;;;;4.55;3.50;;;3.30;99.90;;;;;;4934349;29;20697;-67
2023/10/17 06:38:17;;;;;;;3.90;2.83;;;3.40;99.90;;;;;;4936822;29;20216;-68
2023/10/17 06:40:45;;;;;;;3.45;2.60;;;3.40;99.90;;;;;;4937080;29;20236;-67
2023/10/17 06:43:27;;;;;;;3.30;3.00;;;3.50;99.90;;;;;;4936799;29;20293;-67
2023/10/17 06:45:55;;;;;;;3.80;3.00;;;3.50;99.90;;;;;;4936074;29;20221;-68
2023/10/17 06:48:31;;;;;;;3.95;3.42;;;3.50;99.90;;;;;;4930786;29;20220;-68
2023/10/17 06:53:43;;;;;;;4.60;3.28;;;3.60;99.90;;;;;;4932033;29;20205;-68
2023/10/17 06:56:12;;;;;;;5.45;3.33;;;3.70;99.90;;;;;;4935908;29;20219;-68
2023/10/17 06:58:40;;;;;;;4.45;3.33;;;3.70;99.90;;;;;;4936556;29;20686;-68
2023/10/17 07:01:19;;;;;;;4.78;3.15;;;3.80;99.90;;;;;;4936496;29;20248;-68
2023/10/17 07:03:46;;;;;;;3.35;3.05;;;3.80;99.90;;;;;;4936951;29;20205;-68
2023/10/17 07:06:13;;;;;;;4.85;2.90;;;3.90;99.90;;;;;;4935136;29;20205;-68
2023/10/17 07:08:41;;;;;;;4.03;3.60;;;4.00;99.90;;;;;;4936614;29;20217;-68
2023/10/17 07:11:24;;;;;;;4.72;4.13;;;4.10;99.90;;;;;;4936099;29;20670;-68
2023/10/17 07:14:09;;;;;;;4.30;3.50;;;4.10;99.90;;;;;;4936099;29;20237;-68
2023/10/17 07:16:45;;;;;;;5.90;3.40;;;4.20;99.90;;;;;;4931344;29;20693;-68
2023/10/17 07:22:04;;;;;;;6.63;4.00;;;4.30;99.90;;;;;;4935521;29;20616;-68
2023/10/17 07:24:35;;;;;;;3.72;3.33;;;4.30;99.90;;;;;;4930845;29;20209;-68
2023/10/17 07:27:03;;;;;;;4.10;3.45;;;4.40;99.90;;;;;;4936056;29;20284;-68
2023/10/17 07:29:36;;;;;;;4.20;3.20;;;4.40;99.90;;;;;;4935512;29;20575;-68
2023/10/17 07:32:09;;;;;;;5.57;3.60;;;4.50;99.90;;;;;;4935900;29;20732;-70
2023/10/17 07:34:38;;;;;;;4.32;3.45;;;4.60;99.90;;;;;;4935976;29;20209;-68
2023/10/17 07:37:22;;;;;;;3.92;3.30;;;4.70;99.90;;;;;;4935134;29;20277;-68
2023/10/17 07:40:15;;;;;;;7.28;3.72;;;4.80;99.90;;;;;;4936417;29;20225;-68
2023/10/17 07:42:45;;;;;;;6.18;4.38;;;5.00;99.90;;;;;;4932049;29;20213;-68
2023/10/17 07:45:17;;;;;;;4.68;4.00;;;5.00;99.90;;;;;;4932901;29;20205;-68
2023/10/17 07:47:51;;;;;;;6.32;4.20;;;5.10;99.90;;;;;;4932520;29;20740;-68
2023/10/17 07:50:20;;;;;;;6.28;4.50;;;5.10;99.90;;;;;;4936899;29;20220;-67
2023/10/17 07:52:51;;;;;;;5.90;4.25;;;5.20;99.90;;;;;;4936784;29;20212;-67
2023/10/17 07:55:22;;;;;;;5.50;3.67;;;5.30;99.90;;;;;;4935076;29;20238;-68
2023/10/17 07:57:52;;;;;;;7.88;5.43;;;5.50;99.90;;;;;;4936378;29;20205;-68
2023/10/17 08:00:26;;;;;;;8.63;4.38;;;5.60;99.90;;;;;;4928737;29;20229;-69
2023/10/17 08:03:00;;;;;;;7.13;4.80;;;5.70;99.90;;;;;;5495556;23;20934;-68
2023/10/17 08:05:37;;;;;;;7.35;4.43;;;5.90;99.90;;;;;;4910808;29;20214;-68
2023/10/17 08:08:08;;;;;;;5.78;4.43;;;6.00;99.90;;;;;;4917492;29;20215;-67
2023/10/17 08:10:35;;;;;;;11.38;4.97;;;6.20;99.90;;;;;;4921516;29;20578;-67
2023/10/17 08:13:03;;;;;;;4.45;3.85;;;6.40;99.90;;;;;;4918558;29;20215;-67
2023/10/17 08:15:37;;;;;;;5.18;4.65;;;6.60;99.90;;;;;;4917250;29;20616;-67
2023/10/17 08:18:13;;;;;;;5.45;4.95;;;6.80;99.90;;;;;;4916634;29;20270;-67
2023/10/17 08:20:54;;;;;;;5.82;4.68;;;6.90;99.90;;;;;;4916529;29;20237;-69
2023/10/17 08:23:21;;;;;;;7.13;4.55;;;7.00;99.90;;;;;;4909303;29;20599;-66
2023/10/17 08:25:59;;;;;;;6.65;5.07;;;7.20;99.90;;;;;;4914626;29;20212;-67
2023/10/17 08:28:33;;;;;;;8.43;5.30;;;7.20;99.90;;;;;;4909258;29;20206;-67
2023/10/17 08:31:25;;;;;;;8.00;4.75;;;7.20;99.90;;;;;;4916466;29;20229;-66
2023/10/17 08:33:57;;;;;;;4.68;4.18;;;7.10;99.90;;;;;;4916384;29;20238;-67
2023/10/17 08:36:28;;;;;;;6.32;4.88;;;7.10;99.90;;;;;;4915952;29;20208;-67
2023/10/17 08:38:55;;;;;;;6.32;4.65;;;7.10;99.90;;;;;;4916138;29;20209;-67
2023/10/17 08:41:25;;;;;;;7.65;5.90;;;7.10;99.90;;;;;;4908615;29;20643;-67
2023/10/17 08:43:51;;;;;;;11.77;6.30;;;7.10;99.90;;;;;;4915821;29;20222;-67
2023/10/17 08:46:20;;;;;;;6.07;4.93;;;7.00;99.90;;;;;;4915818;29;20220;-67
2023/10/17 08:48:48;;;;;;;6.72;5.50;;;7.00;99.90;;;;;;4916371;29;20472;-67
2023/10/17 08:51:14;;;;;;;6.75;5.47;;;7.00;99.90;;;;;;4915953;29;20661;-67
2023/10/17 08:53:43;;;;;;;6.95;4.53;;;7.10;99.90;;;;;;4916437;29;20287;-67
2023/10/17 08:56:14;;;;;;;9.25;5.50;;;7.10;99.90;;;;;;4915734;29;20218;-67
2023/10/17 08:58:43;;;;;;;8.63;4.97;;;7.10;99.90;;;;;;4921562;29;20214;-67
2023/10/17 09:01:14;;;;;;;10.90;6.25;;;7.20;99.90;;;;;;4915447;29;20242;-67
2023/10/17 09:03:46;;;;;;;6.88;5.20;;;7.20;99.90;;;;;;4916033;29;20204;-67
2023/10/17 09:06:37;;;;;;;8.60;5.93;;;7.20;99.90;;;;;;4915349;29;20651;-67
2023/10/17 09:09:18;;;;;;;7.75;5.57;;;7.30;99.90;;;;;;4919751;29;20212;-67
2023/10/17 09:14:43;;;;;;;7.30;4.97;;;7.50;99.90;;;;;;4910171;29;20219;-67
2023/10/17 09:17:10;;;;;;;8.50;5.57;;;7.70;99.90;;;;;;4915492;29;20260;-66
2023/10/17 09:19:47;;;;;;;7.47;5.57;;;7.90;99.90;;;;;;4915270;29;20229;-66
2023/10/17 09:22:18;;;;;;;8.55;6.90;;;8.00;99.90;;;;;;4915420;29;20316;-67
2023/10/17 09:24:48;;;;;;;6.78;5.82;;;8.10;99.90;;;;;;4915411;29;20216;-67
2023/10/17 09:27:15;;;;;;;8.80;5.35;;;8.20;99.90;;;;;;4914920;29;20679;-67
2023/10/17 09:29:47;;;;;;;5.50;4.75;;;8.30;99.90;;;;;;4918162;29;20258;-67
2023/10/17 09:32:33;;;;;;;8.82;5.50;;;8.50;99.90;;;;;;4914582;29;20755;-68
2023/10/17 09:35:10;;;;;;;7.40;5.78;;;8.60;99.90;;;;;;4914423;29;20237;-67
2023/10/17 09:37:38;;;;;;;7.75;5.38;;;8.80;99.90;;;;;;4909510;29;20211;-67
2023/10/17 09:40:18;;;;;;;10.90;5.20;;;8.90;99.90;;;;;;4913966;29;20312;-67
2023/10/17 09:42:51;;;;;;;8.20;5.78;;;9.00;99.90;;;;;;4914641;29;20244;-66
2023/10/17 09:45:20;;;;;;;6.18;4.93;;;9.10;99.90;;;;;;4914087;29;20301;-67
2023/10/17 09:47:52;;;;;;;7.80;6.32;;;9.10;99.90;;;;;;4914256;29;20214;-66
2023/10/17 09:50:24;;;;;;;8.25;5.35;;;9.20;99.90;;;;;;4913415;29;20225;-67
2023/10/17 09:52:56;;;;;;;8.07;5.82;;;9.20;99.90;;;;;;4915205;29;20201;-67
2023/10/17 09:55:26;;;;;;;6.45;5.47;;;9.30;99.90;;;;;;4913750;29;20234;-67
2023/10/17 09:57:59;;;;;;;11.63;7.05;;;9.50;99.90;;;;;;4915022;29;20214;-67
2023/10/17 10:00:32;;;;;;;11.10;6.22;;;9.40;99.90;;;;;;4913851;29;20711;-67
2023/10/17 10:03:00;;;;;;;8.55;6.10;;;9.40;99.90;;;;;;4914905;29;20210;-67
2023/10/17 10:05:29;;;;;;;6.85;6.15;;;9.50;99.90;;;;;;4913864;29;20265;-67
2023/10/17 10:07:57;;;;;;;7.47;5.60;;;9.50;99.90;;;;;;4914585;29;20213;-67
2023/10/17 10:10:51;;;;;;;6.20;5.60;;;9.60;99.90;;;;;;4913964;29;20214;-67
2023/10/17 10:13:19;;;;;;;9.13;5.60;;;9.70;99.90;;;;;;4913839;29;20297;-67
2023/10/17 10:15:53;;;;;;;7.55;6.00;;;9.80;99.90;;;;;;4914336;29;20222;-67
2023/10/17 10:19:03;;;;;;;6.18;5.10;;;9.90;99.90;;;;;;4912901;29;20202;-68
2023/10/17 10:22:06;;;;;;;6.15;5.20;;;10.00;99.90;;;;;;4913524;29;20241;-68
2023/10/17 10:24:36;;;;;;;6.20;5.60;;;10.10;99.90;;;;;;4906300;29;20205;-68
2023/10/17 10:27:23;;;;;;;6.55;5.35;;;10.30;99.90;;;;;;4914389;29;20324;-68
2023/10/17 10:29:52;;;;;;;8.18;5.57;;;10.30;99.90;;;;;;4914368;29;20198;-67
2023/10/17 10:32:44;;;;;;;9.05;5.45;;;10.40;99.90;;;;;;4912301;29;20234;-67
2023/10/17 10:35:11;;;;;;;6.43;5.18;;;10.40;99.90;;;;;;4903718;29;20238;-68
2023/10/17 10:37:54;;;;;;;5.80;5.15;;;10.40;99.90;;;;;;4914361;29;20209;-68
2023/10/17 10:40:26;;;;;;;8.80;5.70;;;10.40;99.90;;;;;;4912216;29;20226;-68
2023/10/17 10:42:56;;;;;;;9.23;6.03;;;10.40;99.90;;;;;;4914238;29;20214;-67
2023/10/17 10:45:31;;;;;;;8.10;6.20;;;10.40;99.90;;;;;;4912934;29;20210;-67
2023/10/17 10:47:58;;;;;;;7.50;6.15;;;10.40;99.90;;;;;;4914664;29;20209;-68
2023/10/17 10:50:30;;;;;;;7.13;5.65;;;10.40;99.90;;;;;;4913611;29;20578;-68
2023/10/17 10:53:01;;;;;;;9.27;6.45;;;10.40;99.90;;;;;;4917421;29;20225;-68
2023/10/17 10:55:30;;;;;;;6.63;5.80;;;10.50;99.90;;;;;;4916795;29;20606;-68
2023/10/17 10:58:00;;;;;;;8.55;6.63;;;10.50;99.90;;;;;;4917608;29;20226;-68
2023/10/17 11:00:28;;;;;;;7.00;5.55;;;10.60;99.90;;;;;;4917032;29;20226;-68
2023/10/17 11:02:56;;;;;;;8.75;6.40;;;10.70;99.90;;;;;;4917511;29;20269;-68
2023/10/17 11:05:23;;;;;;;6.75;5.50;;;10.70;99.90;;;;;;4917267;29;20214;-68
2023/10/17 11:08:01;;;;;;;8.15;6.20;;;10.70;99.90;;;;;;4917797;29;20687;-68
2023/10/17 11:10:29;;;;;;;9.40;6.32;;;10.70;99.90;;;;;;4916462;29;20253;-68
2023/10/17 11:12:56;;;;;;;7.72;5.78;;;10.70;99.90;;;;;;4918055;29;20221;-68
2023/10/17 11:15:27;;;;;;;9.35;6.35;;;10.70;99.90;;;;;;4917281;29;20218;-68
2023/10/17 11:18:06;;;;;;;9.10;6.05;;;10.70;99.90;;;;;;4917544;29;20218;-68
2023/10/17 11:20:35;;;;;;;8.80;5.30;;;10.80;99.90;;;;;;4916934;29;20340;-68
2023/10/17 11:23:07;;;;;;;7.60;6.18;;;10.80;99.90;;;;;;4916927;29;20586;-69
2023/10/17 11:25:34;;;;;;;6.13;5.30;;;10.80;99.90;;;;;;4917073;29;20629;-68
2023/10/17 11:28:06;;;;;;;6.95;5.50;;;10.80;99.90;;;;;;4918044;29;20297;-68
2023/10/17 11:30:35;;;;;;;8.85;5.75;;;10.80;99.90;;;;;;4917694;29;20265;-68
2023/10/17 11:33:04;;;;;;;6.45;5.40;;;10.80;99.90;;;;;;4917714;29;20293;-67
2023/10/17 11:35:32;;;;;;;5.43;4.75;;;10.80;99.90;;;;;;4917346;29;20214;-68
2023/10/17 11:37:59;;;;;;;9.18;6.18;;;10.80;99.90;;;;;;4917531;29;20214;-68
2023/10/17 11:40:38;;;;;;;6.55;5.68;;;10.70;99.90;;;;;;4916829;29;20313;-68
2023/10/17 11:43:16;;;;;;;8.05;7.22;;;10.80;99.90;;;;;;4917652;29;20216;-68
2023/10/17 11:45:43;;;;;;;10.90;6.03;;;10.90;99.90;;;;;;4912353;29;20213;-68
2023/10/17 11:48:31;;;;;;;8.80;6.20;;;11.00;99.90;;;;;;4916899;29;20237;-68
2023/10/17 11:51:05;;;;;;;8.60;5.50;;;11.10;99.90;;;;;;4914311;29;20226;-68
2023/10/17 11:53:32;;;;;;;7.38;5.65;;;11.20;99.90;;;;;;4917022;29;20625;-68
2023/10/17 11:56:01;;;;;;;7.90;5.87;;;11.20;99.90;;;;;;4916714;29;20217;-68
2023/10/17 11:58:30;;;;;;;11.18;6.70;;;11.30;99.90;;;;;;4917172;29;20525;-69
2023/10/17 12:00:57;;;;;;;8.85;6.13;;;11.40;99.90;;;;;;4917003;29;20255;-69
2023/10/17 12:03:26;;;;;;;8.35;6.20;;;11.30;99.90;;;;;;4915312;29;20220;-68
2023/10/17 12:05:54;;;;;;;5.68;4.95;;;11.30;99.90;;;;;;4916799;29;20228;-69
2023/10/17 12:08:29;;;;;;;7.60;6.07;;;11.30;99.90;;;;;;4914298;29;20225;-68
2023/10/17 12:10:56;;;;;;;7.75;5.65;;;11.30;99.90;;;;;;4916687;29;20854;-68
2023/10/17 12:13:26;;;;;;;10.02;6.53;;;11.20;99.90;;;;;;4916712;29;20310;-68
2023/10/17 12:15:56;;;;;;;6.70;6.00;;;11.20;99.90;;;;;;4915797;29;20214;-69
2023/10/17 12:18:25;;;;;;;8.10;6.43;;;11.10;99.90;;;;;;4910047;29;20462;-69
2023/10/17 12:20:55;;;;;;;7.30;5.57;;;11.00;99.90;;;;;;4917137;29;20230;-68
2023/10/17 12:23:29;;;;;;;5.80;5.18;;;11.10;99.90;;;;;;4910827;29;20219;-68
2023/10/17 12:25:58;;;;;;;7.82;5.93;;;11.10;99.90;;;;;;5072585;23;20234;-68
2023/10/17 12:28:27;;;;;;;7.80;5.50;;;11.30;99.90;;;;;;4934778;29;20596;-68
2023/10/17 12:30:54;;;;;;;6.20;5.10;;;11.40;99.90;;;;;;4930497;29;20286;-69
2023/10/17 12:33:23;;;;;;;7.43;5.70;;;11.50;99.90;;;;;;4913142;29;20223;-68
2023/10/17 12:35:51;;;;;;;7.78;5.88;;;11.60;99.90;;;;;;4918527;29;20215;-68
2023/10/17 12:38:24;;;;;;;6.53;5.60;;;11.60;99.90;;;;;;4925200;29;20258;-67
2023/10/17 12:40:51;;;;;;;8.27;5.60;;;11.70;99.90;;;;;;4915944;29;20245;-68
2023/10/17 12:43:19;;;;;;;8.10;6.05;;;11.70;99.90;;;;;;4916028;29;20211;-67
2023/10/17 12:45:47;;;;;;;9.52;6.40;;;11.60;99.90;;;;;;4915903;29;20217;-69
2023/10/17 12:48:14;;;;;;;9.68;5.38;;;11.60;99.90;;;;;;4915966;29;20223;-69
2023/10/17 12:50:43;;;;;;;7.03;6.13;;;11.50;99.90;;;;;;4915652;29;20232;-68
2023/10/17 12:53:10;;;;;;;8.07;5.80;;;11.50;99.90;;;;;;4915893;29;20217;-69
2023/10/17 12:55:38;;;;;;;7.53;5.80;;;11.40;99.90;;;;;;4915210;29;20663;-68
2023/10/17 12:58:06;;;;;;;7.82;5.70;;;11.40;99.90;;;;;;4915864;29;20644;-68
2023/10/17 13:00:33;;;;;;;8.82;5.70;;;11.40;99.90;;;;;;4915221;29;20322;-68
2023/10/17 13:03:01;;;;;;;7.40;6.40;;;11.40;99.90;;;;;;4915734;29;20237;-68
2023/10/17 13:05:28;;;;;;;8.10;6.25;;;11.40;99.90;;;;;;4915371;29;20215;-69
2023/10/17 13:07:56;;;;;;;7.22;6.15;;;11.40;99.90;;;;;;4914017;29;20210;-68
2023/10/17 13:10:22;;;;;;;7.07;6.38;;;11.30;99.90;;;;;;4915548;29;20247;-68
2023/10/17 13:12:49;;;;;;;8.75;5.95;;;11.20;99.90;;;;;;4915586;29;20396;-68
2023/10/17 13:15:17;;;;;;;7.57;5.95;;;11.10;99.90;;;;;;4915203;29;20215;-69
2023/10/17 13:17:44;;;;;;;8.50;6.03;;;11.10;99.90;;;;;;4918705;29;20234;-68
2023/10/17 13:20:21;;;;;;;9.88;6.10;;;11.10;99.90;;;;;;4924719;29;20210;-68
2023/10/17 13:22:49;;;;;;;8.35;6.00;;;11.00;99.90;;;;;;4915287;29;20565;-68
2023/10/17 13:25:18;;;;;;;6.85;6.03;;;11.00;99.90;;;;;;4918925;29;20225;-68
2023/10/17 13:27:45;;;;;;;6.22;5.60;;;10.90;99.90;;;;;;4919143;29;20216;-69
2023/10/17 13:30:12;;;;;;;5.20;4.70;;;10.90;99.90;;;;;;4915473;29;20297;-68
2023/10/17 13:32:40;;;;;;;8.15;5.82;;;10.90;99.90;;;;;;4917339;29;20227;-68
2023/10/17 13:35:12;;;;;;;9.55;5.93;;;11.00;99.90;;;;;;4916214;29;20220;-69
2023/10/17 13:37:51;;;;;;;6.10;5.15;;;11.00;99.90;;;;;;4915387;29;20214;-69
2023/10/17 13:40:19;;;;;;;7.88;5.60;;;11.00;99.90;;;;;;4925493;29;20733;-69
2023/10/17 13:42:47;;;;;;;8.45;6.28;;;11.00;99.90;;;;;;4920180;29;20232;-69
2023/10/17 13:45:15;;;;;;;5.72;4.93;;;11.00;99.90;;;;;;4921120;29;20221;-68
2023/10/17 13:47:43;;;;;;;7.00;5.30;;;11.00;99.90;;;;;;4923684;29;20823;-69
2023/10/17 13:50:15;;;;;;;5.25;4.75;;;11.00;99.90;;;;;;4917645;29;20232;-68
2023/10/17 13:52:42;;;;;;;7.13;5.97;;;11.00;99.90;;;;;;4915510;29;20697;-68
2023/10/17 13:55:14;;;;;;;10.10;6.32;;;11.00;99.90;;;;;;4919148;29;20239;-68
2023/10/17 13:57:42;;;;;;;6.45;5.28;;;11.00;99.90;;;;;;4921113;29;20260;-68
2023/10/17 14:00:18;;;;;;;9.55;5.38;;;11.00;99.90;;;;;;4921370;29;20237;-68
2023/10/17 14:02:48;;;;;;;5.38;4.85;;;11.10;99.90;;;;;;4921915;29;20225;-69
2023/10/17 14:05:16;;;;;;;6.40;5.55;;;11.10;99.90;;;;;;4924972;29;20641;-69
2023/10/17 14:07:43;;;;;;;5.30;4.80;;;11.10;99.90;;;;;;4919300;29;20215;-68
2023/10/17 14:10:12;;;;;;;6.50;4.70;;;11.10;99.90;;;;;;4920735;29;20571;-69
2023/10/17 14:12:41;;;;;;;8.32;5.25;;;11.10;99.90;;;;;;4923922;29;20313;-68
2023/10/17 14:15:09;;;;;;;6.40;5.50;;;11.10;99.90;;;;;;4918506;29;20214;-68
2023/10/17 14:17:44;;;;;;;6.70;5.43;;;11.00;99.90;;;;;;4918813;29;20297;-68
2023/10/17 14:20:16;;;;;;;9.52;5.97;;;11.10;99.90;;;;;;4925691;29;20209;-69
2023/10/17 14:23:08;;;;;;;10.50;6.63;;;11.10;99.90;;;;;;4923784;29;20320;-69
2023/10/17 14:28:21;;;;;;;5.60;4.60;;;11.10;99.90;;;;;;4917882;29;20256;-69
2023/10/17 14:30:47;;;;;;;6.38;4.50;;;11.20;99.90;;;;;;4927185;29;20269;-68
2023/10/17 14:33:14;;;;;;;5.35;4.85;;;11.10;99.90;;;;;;4929034;29;20261;-68
2023/10/17 14:35:43;;;;;;;6.25;5.10;;;11.20;99.90;;;;;;4928080;29;20212;-69
2023/10/17 14:38:12;;;;;;;7.57;5.05;;;11.20;99.90;;;;;;4925155;29;20221;-69
2023/10/17 14:40:39;;;;;;;6.50;5.07;;;11.20;99.90;;;;;;4924334;29;20609;-68
2023/10/17 14:43:08;;;;;;;5.25;4.50;;;11.20;99.90;;;;;;4921093;29;20214;-69
2023/10/17 14:45:39;;;;;;;5.13;4.45;;;11.20;99.90;;;;;;4925974;29;20210;-68
2023/10/17 14:48:06;;;;;;;6.22;5.07;;;11.20;99.90;;;;;;4928532;29;20214;-68
2023/10/17 14:50:33;;;;;;;7.38;6.07;;;11.20;99.90;;;;;;4922214;29;20218;-69
2023/10/17 14:53:00;;;;;;;9.05;4.28;;;11.20;99.90;;;;;;4922263;29;20680;-68
2023/10/17 14:55:28;;;;;;;6.38;5.43;;;11.20;99.90;;;;;;4926445;29;20216;-69
2023/10/17 14:57:55;;;;;;;5.28;4.78;;;11.20;99.90;;;;;;4927086;29;20210;-68
2023/10/17 15:00:22;;;;;;;5.45;4.13;;;11.20;99.90;;;;;;4930644;29;20211;-68
2023/10/17 15:02:50;;;;;;;5.40;4.57;;;11.30;99.90;;;;;;4922331;29;20334;-67
2023/10/17 15:05:17;;;;;;;5.18;4.68;;;11.40;99.90;;;;;;4925082;29;20211;-67
2023/10/17 15:07:45;;;;;;;8.25;4.63;;;11.40;99.90;;;;;;4922810;29;20208;-67
2023/10/17 15:10:12;;;;;;;5.78;5.07;;;11.50;99.90;;;;;;4922718;29;20581;-67
2023/10/17 15:12:41;;;;;;;5.25;4.20;;;11.60;99.90;;;;;;4925548;29;20584;-67
2023/10/17 15:15:11;;;;;;;6.43;4.90;;;11.70;99.90;;;;;;4927495;29;20320;-66
2023/10/17 15:17:39;;;;;;;4.88;4.38;;;11.80;99.90;;;;;;4929412;29;20204;-67
2023/10/17 15:20:11;;;;;;;5.70;4.97;;;11.80;99.90;;;;;;4919821;29;20208;-66
2023/10/17 15:22:38;;;;;;;6.70;5.45;;;11.70;99.90;;;;;;4922686;29;20246;-66
2023/10/17 15:25:06;;;;;;;5.20;4.70;;;11.70;99.90;;;;;;4922914;29;20215;-67
2023/10/17 15:27:34;;;;;;;6.18;3.95;;;11.70;99.90;;;;;;4927320;29;20696;-66
2023/10/17 15:30:03;;;;;;;5.25;4.75;;;11.70;99.90;;;;;;4919461;29;20223;-67
2023/10/17 15:32:30;;;;;;;7.60;4.28;;;11.70;99.90;;;;;;4930013;29;20726;-67
2023/10/17 15:34:56;;;;;;;4.38;3.97;;;11.50;99.90;;;;;;4916928;29;20220;-67
2023/10/17 15:37:23;;;;;;;6.27;4.70;;;11.50;99.90;;;;;;4929502;29;20784;-67
2023/10/17 15:39:50;;;;;;;5.38;4.82;;;11.50;99.90;;;;;;4923649;29;20481;-67
2023/10/17 15:42:17;;;;;;;4.70;4.10;;;11.40;99.90;;;;;;4926866;29;20622;-67
2023/10/17 15:44:46;;;;;;;7.05;4.90;;;11.30;99.90;;;;;;4918958;29;20218;-66
2023/10/17 15:47:14;;;;;;;6.15;4.90;;;11.30;99.90;;;;;;4924094;29;20216;-67
2023/10/17 15:49:41;;;;;;;6.80;4.85;;;11.20;99.90;;;;;;4925049;29;20370;-67
2023/10/17 15:52:09;;;;;;;5.47;4.97;;;11.20;99.90;;;;;;4927410;29;20231;-67
2023/10/17 15:54:36;;;;;;;18.20;8.40;;;11.10;99.90;;;;;;4922666;29;20210;-67
2023/10/17 15:57:12;;;;;;;8.25;5.75;;;11.10;99.90;;;;;;4923143;29;20659;-67
2023/10/17 15:59:39;;;;;;;5.07;4.07;;;11.00;99.90;;;;;;4926558;29;20213;-67
2023/10/17 16:02:08;;;;;;;5.60;4.30;;;10.90;99.90;;;;;;4925982;29;20726;-67
2023/10/17 16:04:36;;;;;;;5.53;4.75;;;10.90;99.90;;;;;;4924841;29;20269;-66
2023/10/17 16:07:03;;;;;;;5.15;4.40;;;10.90;99.90;;;;;;4922798;29;20211;-66
2023/10/17 16:09:30;;;;;;;4.55;3.95;;;10.80;99.90;;;;;;4926366;29;20690;-67
2023/10/17 16:11:57;;;;;;;5.25;4.05;;;10.80;99.90;;;;;;4912568;29;24333;-68
2023/10/17 16:14:24;;;;;;;5.93;4.70;;;10.70;99.90;;;;;;4913050;29;20744;-67
2023/10/17 16:16:50;;;;;;;6.95;5.50;;;10.70;99.90;;;;;;4922709;29;20224;-68
2023/10/17 16:19:18;;;;;;;5.97;4.57;;;10.60;99.90;;;;;;4924419;29;20205;-67
2023/10/17 16:25:10;;;;;;;7.32;5.18;;;10.50;99.90;;;;;;4908582;29;20297;-67
2023/10/17 16:27:38;;;;;;;5.47;4.68;;;10.40;99.90;;;;;;4907813;29;20222;-67
2023/10/17 16:30:08;;;;;;;4.97;3.97;;;10.30;99.90;;;;;;4910161;29;20220;-67
2023/10/17 16:35:04;;;;;;;3.80;3.40;;;10.10;99.90;;;;;;5053333;23;20234;-68
2023/10/17 16:37:32;;;;;;;4.07;3.72;;;10.10;99.90;;;;;;4933857;29;20217;-68
2023/10/17 16:39:59;;;;;;;4.93;4.13;;;10.00;99.90;;;;;;4933758;29;20753;-68
2023/10/17 16:42:28;;;;;;;4.80;3.97;;;9.90;99.90;;;;;;4920796;29;20830;-68
2023/10/17 16:44:56;;;;;;;3.30;3.00;;;9.80;99.90;;;;;;4926418;29;20209;-68
2023/10/17 16:47:25;;;;;;;3.60;3.30;;;9.70;99.90;;;;;;4922841;29;20236;-68
2023/10/17 16:49:57;;;;;;;5.65;3.90;;;9.60;99.90;;;;;;4924867;29;20410;-68
2023/10/17 16:52:26;;;;;;;4.45;4.00;;;9.50;99.90;;;;;;4920114;29;20798;-69
2023/10/17 16:54:53;;;;;;;3.85;3.42;;;9.40;99.90;;;;;;4923703;29;20217;-69
2023/10/17 16:57:21;;;;;;;5.45;4.07;;;9.30;99.90;;;;;;4910704;29;20225;-69
2023/10/17 16:59:51;;;;;;;4.47;3.45;;;9.20;99.90;;;;;;4926311;29;20209;-69
2023/10/17 17:02:21;;;;;;;4.85;3.63;;;9.10;99.90;;;;;;4921284;29;20695;-69
2023/10/17 17:04:49;;;;;;;3.83;3.47;;;9.10;99.90;;;;;;4926546;28;20213;-68
2023/10/17 17:07:17;;;;;;;8.68;4.75;;;9.00;99.90;;;;;;4923417;29;20213;-69
2023/10/17 17:09:43;;;;;;;5.00;3.60;;;8.90;99.90;;;;;;4929446;29;20287;-68
2023/10/17 17:12:27;;;;;;;5.68;4.13;;;8.90;99.90;;;;;;4921966;29;20250;-69
2023/10/17 17:14:55;;;;;;;8.73;4.60;;;8.90;99.90;;;;;;4924340;29;20220;-69
2023/10/17 17:17:22;;;;;;;5.43;3.65;;;8.80;99.90;;;;;;4912158;29;20305;-69
2023/10/17 17:19:48;;;;;;;5.07;3.75;;;8.90;99.90;;;;;;4927315;29;20221;-69
2023/10/17 17:22:15;;;;;;;6.18;4.55;;;8.80;99.90;;;;;;4925463;29;20621;-69
2023/10/17 17:24:42;;;;;;;5.53;4.25;;;8.70;99.90;;;;;;4928228;29;20221;-69
2023/10/17 17:27:08;;;;;;;5.30;4.32;;;8.70;99.90;;;;;;4922041;29;20223;-69
2023/10/17 17:29:35;;;;;;;5.22;4.35;;;8.70;99.90;;;;;;4925185;29;20217;-68
2023/10/17 17:32:04;;;;;;;5.93;4.70;;;8.60;99.90;;;;;;4920717;28;20241;-69
2023/10/17 17:34:30;;;;;;;5.72;4.70;;;8.60;99.90;;;;;;4927170;29;20221;-69
2023/10/17 17:36:57;;;;;;;4.45;3.60;;;8.40;99.90;;;;;;4923372;29;20222;-69
2023/10/17 17:39:24;;;;;;;5.70;4.70;;;8.40;99.90;;;;;;4929541;29;20694;-69
2023/10/17 17:41:51;;;;;;;5.65;4.53;;;8.30;99.90;;;;;;4924088;29;20241;-69
2023/10/17 17:44:18;;;;;;;5.90;4.22;;;8.30;99.90;;;;;;4927110;29;20588;-69
2023/10/17 17:46:45;;;;;;;4.15;3.75;;;8.20;99.90;;;;;;4923833;29;20749;-69
2023/10/17 17:49:13;;;;;;;7.55;4.15;;;8.20;99.90;;;;;;4926981;29;20242;-69
2023/10/17 17:51:40;;;;;;;7.63;4.78;;;8.10;99.90;;;;;;4925865;29;20230;-69
2023/10/17 17:54:07;;;;;;;5.07;4.30;;;8.10;99.90;;;;;;4926228;29;20213;-69
2023/10/17 17:56:34;;;;;;;9.15;6.32;;;8.00;99.90;;;;;;4926830;29;20469;-69
2023/10/17 17:59:03;;;;;;;13.77;7.05;;;8.00;99.90;;;;;;4924232;29;20220;-69
2023/10/17 18:01:36;;;;;;;11.18;6.75;;;7.90;99.90;;;;;;4928330;29;20227;-70
2023/10/17 18:04:06;;;;;;;14.20;8.45;;;7.90;99.90;;;;;;4917111;29;20236;-69
2023/10/17 18:06:36;;;;;;;26.50;9.60;;;7.80;99.90;;;;;;4923740;29;20283;-69
2023/10/17 18:09:05;;;;;;;27.25;11.57;;;7.70;99.90;;;;;;4917098;29;20241;-70
2023/10/17 18:11:33;;;;;;;32.85;13.50;;;7.70;99.90;;;;;;4929221;29;20725;-70
2023/10/17 18:13:59;;;;;;;28.45;11.80;;;7.60;99.90;;;;;;4925598;29;20315;-70
2023/10/17 18:16:30;;;;;;;29.23;11.07;;;7.60;99.90;;;;;;4927832;28;20613;-70
2023/10/17 18:18:57;;;;;;;20.90;9.13;;;7.50;99.90;;;;;;4927278;29;20328;-69
2023/10/17 18:21:24;;;;;;;16.58;6.35;;;7.50;99.90;;;;;;4928355;29;20633;-70